Time;durP1;ratioP1;P1;durP2;ratioP2;P2;SDS_P1;SDS_P2;PMS_P1;PMS_P2;Temp;Humidity;BMP_temperature;BMP_pressure;BME280_temperature;BME280_humidity;BME280_pressure;Samples;Min_cycle;Max_cycle;Signal;HPM_P1;HPM_P2
2023/01/01 00:00:05;;;;;;;21.23;10.77;;;;;;;14.35;56.34;99281.25;5061320;28;20250;-94
2023/01/01 00:02:31;;;;;;;17.67;9.32;;;;;;;14.40;56.07;99287.75;5060082;28;20277;-94
2023/01/01 00:04:57;;;;;;;23.05;10.95;;;;;;;14.43;55.68;99278.91;5062638;28;20066;-94
2023/01/01 00:07:22;;;;;;;24.45;10.57;;;;;;;14.39;55.66;99275.97;5059921;28;20486;-94
2023/01/01 00:12:32;;;;;;;21.40;9.00;;;;;;;14.44;56.12;99291.50;5061465;28;20300;-94
2023/01/01 00:14:57;;;;;;;16.52;10.73;;;;;;;14.36;56.19;99295.75;5060564;28;20044;-95
2023/01/01 00:17:23;;;;;;;19.75;12.68;;;;;;;14.32;55.89;99300.22;5068128;28;20036;-95
2023/01/01 00:19:48;;;;;;;19.53;11.53;;;;;;;14.33;56.12;99307.31;5059599;28;20040;-94
2023/01/01 00:22:13;;;;;;;20.98;13.07;;;;;;;14.29;56.42;99312.59;5060408;28;20793;-94
2023/01/01 00:24:38;;;;;;;31.33;12.63;;;;;;;14.25;56.44;99314.31;5060333;28;20054;-94
2023/01/01 00:27:04;;;;;;;24.33;14.80;;;;;;;14.26;56.49;99315.94;5060836;28;20544;-94
2023/01/01 00:29:31;;;;;;;31.87;16.67;;;;;;;14.28;56.76;99305.47;5061655;28;20336;-96
2023/01/01 00:31:56;;;;;;;20.35;12.18;;;;;;;14.21;56.61;99296.84;5060771;28;20258;-94
2023/01/01 00:34:21;;;;;;;27.87;14.13;;;;;;;14.21;56.51;99292.19;5060559;28;20051;-96
2023/01/01 00:36:47;;;;;;;31.93;12.83;;;;;;;14.22;56.64;99298.44;5059922;28;20258;-94
2023/01/01 00:39:12;;;;;;;25.58;12.90;;;;;;;14.27;56.63;99287.41;5061362;28;20254;-95
2023/01/01 00:41:37;;;;;;;28.13;14.48;;;;;;;14.17;55.76;99284.84;5060565;28;20090;-96
2023/01/01 00:44:02;;;;;;;25.00;14.67;;;;;;;14.21;56.28;99291.34;5060822;28;20032;-94
2023/01/01 00:46:28;;;;;;;19.67;13.80;;;;;;;14.18;56.27;99292.75;5057995;28;20269;-94
2023/01/01 00:48:53;;;;;;;22.35;13.65;;;;;;;14.16;56.08;99288.69;5060386;28;20261;-93
2023/01/01 00:51:18;;;;;;;23.33;14.50;;;;;;;14.13;55.84;99306.56;5061409;28;20032;-96
2023/01/01 00:53:43;;;;;;;26.10;14.90;;;;;;;14.12;55.98;99307.66;5043573;28;20277;-94
2023/01/01 00:56:09;;;;;;;20.30;13.57;;;;;;;14.11;56.09;99300.56;5059216;28;21355;-94
2023/01/01 00:58:34;;;;;;;23.92;12.52;;;;;;;14.07;55.86;99310.50;5061456;28;20322;-95
2023/01/01 01:00:59;;;;;;;26.97;12.23;;;;;;;14.05;55.93;99310.81;5059933;28;20380;-96
2023/01/01 01:03:27;;;;;;;29.95;14.45;;;;;;;14.04;55.74;99309.19;5059350;28;20284;-95
2023/01/01 01:05:57;;;;;;;18.75;11.43;;;;;;;14.01;56.31;99298.81;5059224;28;20055;-94
2023/01/01 01:08:23;;;;;;;25.50;12.13;;;;;;;14.03;55.83;99299.34;5061307;28;20605;-94
2023/01/01 01:10:48;;;;;;;17.90;10.05;;;;;;;13.99;55.15;99314.75;5061214;28;20115;-95
2023/01/01 01:13:14;;;;;;;22.20;9.40;;;;;;;14.03;54.87;99296.59;5060298;28;20175;-95
2023/01/01 01:15:39;;;;;;;20.07;10.57;;;;;;;14.02;54.38;99308.66;5058377;28;20500;-95
2023/01/01 01:18:04;;;;;;;23.30;10.23;;;;;;;14.00;54.92;99317.19;5060721;28;20277;-94
2023/01/01 01:20:29;;;;;;;20.70;8.50;;;;;;;13.92;54.89;99300.59;5060171;28;20274;-94
2023/01/01 01:22:55;;;;;;;22.50;8.17;;;;;;;13.97;55.64;99314.22;5060791;28;20315;-94
2023/01/01 01:25:20;;;;;;;21.73;9.83;;;;;;;13.89;55.00;99308.31;5059974;28;20273;-95
2023/01/01 01:27:45;;;;;;;18.85;9.02;;;;;;;13.82;55.24;99324.31;5059660;28;20314;-95
2023/01/01 01:30:11;;;;;;;15.60;7.55;;;;;;;13.84;55.05;99316.63;5058913;28;20037;-94
2023/01/01 01:32:36;;;;;;;23.40;8.18;;;;;;;13.80;54.21;99321.06;5060723;28;20033;-94
2023/01/01 01:35:02;;;;;;;11.70;5.60;;;;;;;13.80;54.33;99329.28;5058810;28;20024;-94
2023/01/01 01:37:27;;;;;;;14.60;6.18;;;;;;;13.82;54.01;99321.56;5057165;28;20036;-94
2023/01/01 01:39:52;;;;;;;10.70;5.38;;;;;;;13.82;54.26;99324.31;5041607;28;20341;-95
2023/01/01 01:42:18;;;;;;;13.67;4.60;;;;;;;13.83;54.15;99323.19;5061904;28;20039;-93
2023/01/01 01:44:57;;;;;;;11.43;4.25;;;;;;;13.85;53.44;99329.19;5059136;28;20435;-93
2023/01/01 01:47:31;;;;;;;9.68;4.70;;;;;;;13.81;53.38;99343.81;5058619;28;20059;-94
2023/01/01 01:50:05;;;;;;;11.38;4.72;;;;;;;13.84;53.42;99319.34;5041072;28;20024;-94
2023/01/01 01:52:35;;;;;;;13.88;3.25;;;;;;;13.80;52.95;99326.53;5055026;28;20123;-94
2023/01/01 01:55:02;;;;;;;9.65;3.85;;;;;;;13.77;52.31;99327.13;5058784;28;20037;-94
2023/01/01 01:57:28;;;;;;;9.32;3.63;;;;;;;13.74;53.11;99327.72;5059317;28;20033;-96
2023/01/01 01:59:56;;;;;;;7.95;3.10;;;;;;;13.77;52.67;99332.59;5062080;28;20041;-96
2023/01/01 02:02:35;;;;;;;6.93;3.08;;;;;;;13.87;52.81;99332.44;5059398;28;20128;-94
2023/01/01 02:05:01;;;;;;;6.80;4.03;;;;;;;13.88;52.75;99344.22;5057684;28;20658;-95
2023/01/01 02:07:30;;;;;;;12.00;3.40;;;;;;;13.80;52.11;99345.72;5058099;28;20025;-95
2023/01/01 02:09:56;;;;;;;9.50;2.83;;;;;;;13.75;52.50;99354.81;5065096;28;20112;-96
2023/01/01 02:12:22;;;;;;;12.13;2.25;;;;;;;13.76;52.72;99339.19;5059609;28;20063;-94
2023/01/01 02:14:48;;;;;;;8.20;2.25;;;;;;;13.72;52.44;99368.28;5058978;28;20059;-94
2023/01/01 02:17:32;;;;;;;6.20;2.55;;;;;;;13.74;52.77;99366.91;5060042;28;20032;-95
2023/01/01 02:20:14;;;;;;;6.82;3.15;;;;;;;13.70;52.80;99359.56;5064090;28;20105;-96
2023/01/01 02:23:14;;;;;;;8.80;2.10;;;;;;;13.72;52.96;99355.41;5061015;28;20028;-96
2023/01/01 02:25:51;;;;;;;7.05;2.33;;;;;;;13.64;52.27;99343.22;5045138;28;20039;-96
2023/01/01 02:28:51;;;;;;;7.45;2.30;;;;;;;13.64;52.57;99340.47;5059111;28;20035;-95
2023/01/01 02:31:23;;;;;;;13.10;3.17;;;;;;;13.62;52.51;99347.34;5059587;28;20028;-95
2023/01/01 02:33:52;;;;;;;5.10;2.13;;;;;;;13.58;53.19;99336.19;5060037;28;20028;-93
2023/01/01 02:36:19;;;;;;;6.65;2.50;;;;;;;13.59;53.04;99336.97;5058105;28;20036;-95
2023/01/01 02:38:51;;;;;;;7.90;2.15;;;;;;;13.56;52.78;99343.03;5060117;28;20094;-94
2023/01/01 02:41:31;;;;;;;4.78;2.17;;;;;;;13.63;52.91;99344.31;5060962;28;20021;-93
2023/01/01 02:43:57;;;;;;;4.55;1.75;;;;;;;13.59;52.38;99337.78;5060520;28;20445;-96
2023/01/01 02:46:22;;;;;;;6.40;2.53;;;;;;;13.60;52.48;99342.16;5057281;28;20037;-96
2023/01/01 02:48:50;;;;;;;6.27;1.53;;;;;;;13.58;52.60;99336.19;5058379;28;20032;-95
2023/01/01 02:51:22;;;;;;;12.00;2.10;;;;;;;13.57;52.86;99344.66;5058375;28;20315;-96
2023/01/01 02:54:14;;;;;;;11.60;2.63;;;;;;;13.54;52.50;99344.16;5059740;28;20083;-93
2023/01/01 02:57:04;;;;;;;5.47;1.77;;;;;;;13.54;52.40;99346.91;5039570;28;20040;-95
2023/01/01 03:02:49;;;;;;;4.50;1.95;;;;;;;13.59;52.42;99346.00;5061533;28;20043;-95
2023/01/01 03:05:35;;;;;;;7.40;2.38;;;;;;;13.57;52.52;99352.88;5064260;28;20453;-96
2023/01/01 03:08:16;;;;;;;3.85;1.33;;;;;;;13.54;52.81;99340.63;5062885;28;20072;-96
2023/01/01 03:10:50;;;;;;;3.22;1.40;;;;;;;13.51;52.46;99343.88;5062783;28;20036;-96
2023/01/01 03:13:35;;;;;;;;;;;;;;;13.55;52.38;99361.41;5063537;28;20103;-96
2023/01/01 03:16:26;;;;;;;6.38;1.55;;;;;;;13.53;52.75;99360.84;5059731;28;19918;-96
2023/01/01 03:19:09;;;;;;;2.78;1.33;;;;;;;13.54;52.96;99362.53;5061833;28;20032;-95
2023/01/01 03:21:41;;;;;;;5.32;1.88;;;;;;;13.49;52.74;99382.53;5061241;28;20043;-95
2023/01/01 03:24:10;;;;;;;6.32;2.17;;;;;;;13.54;52.90;99368.00;5062019;28;20788;-94
2023/01/01 03:26:37;;;;;;;5.20;1.27;;;;;;;13.56;53.12;99371.25;5059447;28;20125;-94
2023/01/01 03:29:04;;;;;;;10.15;1.25;;;;;;;13.49;52.71;99366.09;5061537;28;20075;-94
2023/01/01 03:31:31;;;;;;;2.88;1.23;;;;;;;13.54;52.95;99368.81;5060273;28;20021;-96
2023/01/01 03:34:06;;;;;;;6.47;2.10;;;;;;;13.55;53.34;99377.81;5059613;28;20797;-94
2023/01/01 03:36:36;;;;;;;5.85;1.63;;;;;;;13.51;53.08;99374.00;5061904;28;20043;-96
2023/01/01 03:39:08;;;;;;;4.85;1.98;;;;;;;13.55;53.34;99372.34;5044508;28;20547;-95
2023/01/01 03:41:38;;;;;;;7.65;1.92;;;;;;;13.50;53.57;99364.19;5061487;28;20021;-96
2023/01/01 03:44:40;;;;;;;11.00;2.50;;;;;;;13.46;53.30;99371.34;5061140;28;20040;-95
2023/01/01 03:47:06;;;;;;;15.10;2.20;;;;;;;13.46;53.28;99366.69;5058451;28;20128;-94
2023/01/01 03:49:32;;;;;;;5.68;1.15;;;;;;;13.49;53.79;99378.97;5060103;28;20123;-94
2023/01/01 03:52:15;;;;;;;5.70;1.55;;;;;;;13.49;53.52;99390.75;5061878;28;20446;-93
2023/01/01 03:54:48;;;;;;;2.70;1.08;;;;;;;13.46;53.81;99390.53;5059352;28;20032;-94
2023/01/01 03:57:19;;;;;;;5.13;1.50;;;;;;;13.48;53.76;99388.31;5059430;28;20111;-94
2023/01/01 04:00:02;;;;;;;8.40;1.30;;;;;;;13.50;53.73;99373.22;5060197;28;20470;-95
2023/01/01 04:02:33;;;;;;;4.57;1.45;;;;;;;13.46;53.44;99376.84;5059461;28;20061;-94
2023/01/01 04:05:00;;;;;;;7.13;0.95;;;;;;;13.49;53.71;99376.22;5040944;28;20087;-96
2023/01/01 04:07:29;;;;;;;12.40;1.50;;;;;;;13.51;54.00;99402.22;5060175;28;20040;-96
2023/01/01 04:09:58;;;;;;;4.35;1.63;;;;;;;13.51;54.18;99406.88;5061160;28;20111;-94
2023/01/01 04:12:23;;;;;;;5.72;1.08;;;;;;;13.46;53.95;99405.03;5060336;28;20025;-94
2023/01/01 04:14:49;;;;;;;3.85;1.13;;;;;;;13.47;53.85;99405.84;5059875;28;20123;-95
2023/01/01 04:17:14;;;;;;;7.55;1.50;;;;;;;13.46;54.31;99431.59;5059032;28;20444;-95
2023/01/01 04:19:39;;;;;;;6.57;2.15;;;;;;;13.60;54.30;99442.69;5057793;28;20060;-95
2023/01/01 04:22:05;;;;;;;5.53;1.38;;;;;;;13.58;54.22;99423.81;5058462;28;20021;-95
2023/01/01 04:24:30;;;;;;;2.10;1.02;;;;;;;13.52;54.59;99427.69;5058262;28;20053;-95
2023/01/01 04:26:55;;;;;;;3.93;1.20;;;;;;;13.50;54.29;99438.13;5059255;28;20024;-95
2023/01/01 04:29:21;;;;;;;9.90;1.90;;;;;;;13.55;54.62;99429.84;5060633;28;20626;-96
2023/01/01 04:31:48;;;;;;;4.78;1.08;;;;;;;13.59;54.75;99425.44;5059435;28;20315;-95
2023/01/01 04:34:14;;;;;;;4.97;1.45;;;;;;;13.52;55.09;99408.53;5064729;28;20020;-95
2023/01/01 04:36:40;;;;;;;8.35;1.75;;;;;;;13.54;55.49;99417.28;5059063;28;20028;-94
2023/01/01 04:39:06;;;;;;;6.60;1.27;;;;;;;13.52;55.36;99411.25;5062070;28;20116;-94
2023/01/01 04:41:31;;;;;;;15.73;1.70;;;;;;;13.51;55.15;99418.66;5061528;28;20115;-95
2023/01/01 04:43:57;;;;;;;7.55;1.13;;;;;;;13.53;55.37;99421.91;5062438;28;20406;-95
2023/01/01 04:46:23;;;;;;;4.78;1.95;;;;;;;13.53;55.22;99410.97;5061378;28;20040;-94
2023/01/01 04:48:48;;;;;;;5.63;1.70;;;;;;;13.56;55.68;99406.84;5061988;28;20142;-95
2023/01/01 04:51:16;;;;;;;8.82;1.52;;;;;;;13.56;55.71;99409.59;5061588;28;20099;-96
2023/01/01 04:53:41;;;;;;;6.38;1.73;;;;;;;13.67;55.77;99442.34;5059955;28;20031;-95
2023/01/01 04:56:09;;;;;;;5.13;1.10;;;;;;;13.60;55.92;99432.56;5059476;28;20495;-95
2023/01/01 04:58:37;;;;;;;2.67;0.93;;;;;;;13.57;56.09;99421.34;5061378;28;20047;-96
2023/01/01 05:01:03;;;;;;;5.25;1.40;;;;;;;13.60;56.52;99426.25;5059663;28;20063;-95
2023/01/01 05:03:29;;;;;;;3.45;1.13;;;;;;;13.64;56.28;99433.59;5061394;28;20059;-96
2023/01/01 05:06:04;;;;;;;8.20;2.05;;;;;;;13.61;56.16;99439.66;5061282;28;20060;-95
2023/01/01 05:08:31;;;;;;;2.60;0.75;;;;;;;13.56;56.84;99441.63;5059450;28;20028;-95
2023/01/01 05:11:05;;;;;;;5.28;1.45;;;;;;;13.54;56.82;99444.69;5059763;28;20123;-95
2023/01/01 05:13:32;;;;;;;4.18;1.25;;;;;;;13.56;56.55;99449.84;5059267;28;20094;-96
2023/01/01 05:16:01;;;;;;;3.80;1.40;;;;;;;13.54;56.89;99439.19;5058521;28;20171;-96
2023/01/01 05:18:26;;;;;;;4.82;1.40;;;;;;;13.57;56.81;99440.50;5058856;28;20033;-96
2023/01/01 05:20:52;;;;;;;6.47;2.07;;;;;;;13.62;57.00;99441.28;5057590;28;20226;-94
2023/01/01 05:23:17;;;;;;;14.13;1.83;;;;;;;13.55;57.00;99440.81;5058882;28;20277;-94
2023/01/01 05:25:43;;;;;;;3.80;1.40;;;;;;;13.54;56.94;99450.16;5058117;28;20274;-96
2023/01/01 05:28:08;;;;;;;3.33;1.35;;;;;;;13.41;57.17;99430.56;5060280;28;20127;-94
2023/01/01 05:30:33;;;;;;;10.57;1.50;;;;;;;13.37;57.51;99429.50;5042206;28;20063;-96
2023/01/01 05:32:58;;;;;;;9.98;1.55;;;;;;;13.37;57.24;99445.09;5059415;28;20269;-95
2023/01/01 05:35:24;;;;;;;4.90;2.13;;;;;;;13.34;57.66;99435.56;5059770;28;20029;-96
2023/01/01 05:37:50;;;;;;;5.57;1.20;;;;;;;13.41;57.24;99444.25;5058128;28;20265;-95
2023/01/01 05:40:16;;;;;;;12.43;2.67;;;;;;;13.31;57.67;99436.13;5061097;28;20261;-96
2023/01/01 05:42:41;;;;;;;3.15;0.82;;;;;;;13.37;57.55;99445.94;5057338;28;20052;-95
2023/01/01 05:45:07;;;;;;;6.70;1.63;;;;;;;13.35;57.62;99437.19;5040699;28;20064;-94
2023/01/01 05:47:32;;;;;;;2.38;0.82;;;;;;;13.38;58.00;99444.00;5058797;28;20269;-94
2023/01/01 05:49:57;;;;;;;2.70;1.27;;;;;;;13.30;57.65;99453.69;5058128;28;20033;-95
2023/01/01 05:52:22;;;;;;;6.03;1.33;;;;;;;13.35;57.90;99447.31;5060187;28;20619;-95
2023/01/01 05:54:48;;;;;;;6.10;1.37;;;;;;;13.25;58.14;99472.88;5060488;28;20269;-94
2023/01/01 05:57:13;;;;;;;4.87;2.13;;;;;;;13.31;58.40;99464.34;5059077;28;20277;-94
2023/01/01 05:59:38;;;;;;;3.70;1.80;;;;;;;13.32;59.07;99478.84;5058453;28;20257;-94
2023/01/01 06:02:03;;;;;;;4.00;1.43;;;;;;;13.27;59.11;99470.69;5058439;28;20265;-94
2023/01/01 06:04:29;;;;;;;9.20;2.07;;;;;;;13.31;59.93;99486.25;5059299;28;20265;-94
2023/01/01 06:06:54;;;;;;;8.07;2.00;;;;;;;13.27;59.69;99495.31;5058274;28;20270;-94
2023/01/01 06:09:19;;;;;;;3.73;0.90;;;;;;;13.33;59.80;99502.38;5058950;28;20296;-93
2023/01/01 06:11:44;;;;;;;3.97;0.93;;;;;;;13.26;59.58;99515.59;5061762;28;20792;-93
2023/01/01 06:14:10;;;;;;;13.00;2.80;;;;;;;13.30;60.27;99513.91;5061055;28;20951;-92
2023/01/01 06:16:35;;;;;;;9.73;1.70;;;;;;;13.25;61.39;99517.50;5058086;28;20033;-94
2023/01/01 06:19:00;;;;;;;2.55;0.90;;;;;;;13.22;61.58;99517.28;5056765;28;20281;-92
2023/01/01 06:21:28;;;;;;;4.22;1.40;;;;;;;13.22;61.80;99517.28;5060733;28;20033;-94
2023/01/01 06:23:55;;;;;;;7.50;1.73;;;;;;;13.16;61.53;99516.50;5058731;28;20393;-95
2023/01/01 06:26:26;;;;;;;11.02;2.90;;;;;;;13.11;61.23;99520.09;5039355;28;20033;-94
2023/01/01 06:28:51;;;;;;;3.30;1.30;;;;;;;13.17;61.94;99513.47;5059670;28;20119;-93
2023/01/01 06:31:19;;;;;;;11.32;1.67;;;;;;;13.24;61.82;99518.59;5059787;28;20120;-94
2023/01/01 06:33:45;;;;;;;4.30;1.50;;;;;;;13.24;61.67;99540.50;5057771;28;20537;-95
2023/01/01 06:36:13;;;;;;;10.63;2.58;;;;;;;13.13;62.03;99534.31;5058083;28;20536;-94
2023/01/01 06:38:41;;;;;;;9.18;2.10;;;;;;;13.28;61.75;99536.09;5058087;28;20531;-95
2023/01/01 06:41:13;;;;;;;15.52;1.55;;;;;;;13.23;61.13;99536.16;5058746;28;20033;-93
2023/01/01 06:43:38;;;;;;;9.55;1.63;;;;;;;13.17;60.88;99546.31;5059876;28;20028;-93
2023/01/01 06:46:14;;;;;;;5.78;1.08;;;;;;;13.23;61.00;99568.16;5056187;28;20102;-95
2023/01/01 06:48:39;;;;;;;7.00;1.50;;;;;;;13.26;60.29;99540.22;5057132;28;20032;-96
2023/01/01 06:51:10;;;;;;;6.47;1.47;;;;;;;13.23;60.73;99549.84;5058516;28;20178;-95
2023/01/01 06:53:36;;;;;;;4.38;1.58;;;;;;;13.24;60.68;99562.41;5057760;28;20254;-96
2023/01/01 06:56:02;;;;;;;3.33;1.30;;;;;;;13.23;60.13;99581.84;5056672;28;20036;-96
2023/01/01 06:58:27;;;;;;;7.35;1.27;;;;;;;13.29;60.64;99591.66;5059155;28;20034;-95
2023/01/01 07:00:52;;;;;;;3.92;1.73;;;;;;;13.25;60.60;99582.38;5058712;28;20363;-96
2023/01/01 07:03:18;;;;;;;5.00;1.77;;;;;;;13.22;60.53;99594.72;5067075;28;20036;-94
2023/01/01 07:05:43;;;;;;;5.68;1.45;;;;;;;13.21;60.37;99595.00;5058049;28;20709;-94
2023/01/01 07:08:08;;;;;;;7.32;1.42;;;;;;;13.31;60.61;99592.19;5057485;28;20068;-93
2023/01/01 07:10:34;;;;;;;6.13;1.38;;;;;;;13.29;60.68;99591.66;5058449;28;20031;-95
2023/01/01 07:12:59;;;;;;;2.73;1.13;;;;;;;13.22;61.86;99591.97;5058436;28;20436;-95
2023/01/01 07:15:25;;;;;;;3.85;1.63;;;;;;;13.27;63.10;99599.34;5054174;28;20264;-92
2023/01/01 07:17:50;;;;;;;7.32;2.50;;;;;;;13.24;63.38;99600.72;5039538;28;20028;-93
2023/01/01 07:20:16;;;;;;;5.43;1.37;;;;;;;13.19;63.75;99609.81;5059007;28;20393;-95
2023/01/01 07:22:41;;;;;;;5.23;1.50;;;;;;;13.15;63.73;99600.53;5057236;28;20290;-95
2023/01/01 07:25:09;;;;;;;3.57;1.17;;;;;;;13.12;64.40;99600.31;5056714;28;20273;-94
2023/01/01 07:27:34;;;;;;;6.55;1.08;;;;;;;13.09;63.57;99598.94;5058577;28;20269;-95
2023/01/01 07:29:59;;;;;;;6.37;1.80;;;;;;;13.06;63.63;99613.19;5059554;28;20040;-94
2023/01/01 07:32:24;;;;;;;5.60;1.23;;;;;;;13.14;63.26;99618.06;5057822;28;20261;-96
2023/01/01 07:34:50;;;;;;;3.87;1.43;;;;;;;13.13;63.61;99613.69;5039523;28;20270;-94
2023/01/01 07:37:15;;;;;;;6.67;2.13;;;;;;;13.15;63.38;99633.38;5056521;28;20268;-94
2023/01/01 07:39:40;;;;;;;4.40;1.52;;;;;;;13.11;64.48;99635.06;5059102;28;20262;-95
2023/01/01 07:42:05;;;;;;;3.30;1.20;;;;;;;13.15;64.95;99654.47;5058799;28;20234;-93
2023/01/01 07:44:31;;;;;;;6.00;1.30;;;;;;;13.06;65.25;99659.72;5056097;28;20755;-94
2023/01/01 07:47:24;;;;;;;4.78;1.20;;;;;;;13.04;65.56;99656.44;5061772;28;20360;-96
2023/01/01 07:49:50;;;;;;;5.05;1.95;;;;;;;13.05;66.62;99652.63;5062995;28;20033;-94
2023/01/01 07:52:15;;;;;;;16.48;2.00;;;;;;;13.06;66.94;99667.91;5061009;28;20033;-96
2023/01/01 07:54:41;;;;;;;4.03;1.17;;;;;;;12.91;67.52;99655.16;5061343;28;20543;-93
2023/01/01 07:57:06;;;;;;;4.03;0.90;;;;;;;12.81;68.25;99658.78;5061086;28;20037;-93
2023/01/01 07:59:31;;;;;;;3.87;1.20;;;;;;;12.84;68.93;99663.69;5060914;28;20025;-94
2023/01/01 08:01:57;;;;;;;3.10;1.10;;;;;;;12.88;68.93;99663.94;5062191;28;20666;-94
2023/01/01 08:04:23;;;;;;;8.02;1.85;;;;;;;12.71;69.86;99676.88;5061586;28;20020;-93
2023/01/01 08:06:48;;;;;;;4.40;1.55;;;;;;;12.78;70.89;99687.50;5062557;28;20067;-92
2023/01/01 08:09:13;;;;;;;16.73;2.37;;;;;;;12.75;71.38;99685.34;5059862;28;20068;-94
2023/01/01 08:11:39;;;;;;;4.70;1.67;;;;;;;12.68;71.73;99679.34;5060701;28;20327;-94
2023/01/01 08:14:04;;;;;;;5.70;2.70;;;;;;;12.61;72.55;99671.44;5060796;28;20286;-96
2023/01/01 08:16:29;;;;;;;6.30;1.63;;;;;;;12.56;72.34;99674.22;5060210;28;20254;-94
2023/01/01 08:18:54;;;;;;;4.18;1.67;;;;;;;12.62;72.86;99667.63;5060867;28;20060;-96
2023/01/01 08:21:20;;;;;;;7.55;1.70;;;;;;;12.52;72.58;99689.53;5062400;28;20054;-94
2023/01/01 08:23:45;;;;;;;4.97;1.33;;;;;;;12.55;73.16;99691.75;5060136;28;20057;-95
2023/01/01 08:26:15;;;;;;;6.37;1.73;;;;;;;12.51;73.75;99696.13;5058838;28;20301;-95
2023/01/01 08:28:41;;;;;;;3.78;1.83;;;;;;;12.51;73.06;99696.13;5059404;28;20792;-94
2023/01/01 08:31:06;;;;;;;8.50;1.98;;;;;;;12.48;72.82;99701.06;5062109;28;20124;-95
2023/01/01 08:33:32;;;;;;;3.10;1.10;;;;;;;12.66;72.74;99701.53;5059654;28;20051;-94
2023/01/01 08:35:57;;;;;;;6.07;1.60;;;;;;;12.71;72.70;99700.69;5059324;28;20571;-93
2023/01/01 08:38:22;;;;;;;8.02;1.77;;;;;;;12.67;72.43;99697.69;5057877;28;20253;-94
2023/01/01 08:40:48;;;;;;;4.90;1.63;;;;;;;12.62;72.26;99689.50;5061144;28;20511;-92
2023/01/01 08:43:13;;;;;;;8.63;3.30;;;;;;;12.70;71.90;99707.25;5058375;28;20323;-95
2023/01/01 08:45:38;;;;;;;7.33;2.27;;;;;;;12.67;71.53;99691.41;5058909;28;20804;-96
2023/01/01 08:48:04;;;;;;;9.80;1.88;;;;;;;12.72;71.23;99697.66;5062125;28;20286;-94
2023/01/01 08:50:29;;;;;;;6.10;1.92;;;;;;;12.71;71.17;99714.38;5059231;28;20064;-92
2023/01/01 08:52:56;;;;;;;8.23;2.10;;;;;;;12.87;71.12;99739.75;5059965;28;20029;-94
2023/01/01 08:55:22;;;;;;;6.32;2.42;;;;;;;12.78;70.72;99727.72;5058158;28;20258;-93
2023/01/01 08:57:47;;;;;;;6.13;2.33;;;;;;;12.84;70.43;99729.34;5059743;28;20047;-93
2023/01/01 09:00:12;;;;;;;4.80;1.65;;;;;;;12.83;70.50;99744.13;5060353;28;20314;-93
2023/01/01 09:02:38;;;;;;;4.10;1.52;;;;;;;12.85;70.61;99736.47;5063828;28;20123;-93
2023/01/01 09:05:03;;;;;;;7.73;1.93;;;;;;;12.85;70.22;99747.41;5053585;28;20044;-91
2023/01/01 09:07:28;;;;;;;6.20;1.42;;;;;;;12.80;70.21;99742.75;5058206;28;20259;-90
2023/01/01 09:09:54;;;;;;;7.00;1.67;;;;;;;12.83;69.99;99753.13;5067568;28;20132;-90
2023/01/01 09:12:19;;;;;;;5.20;1.30;;;;;;;12.90;70.06;99760.22;5058493;28;20447;-90
2023/01/01 09:14:47;;;;;;;5.20;1.73;;;;;;;12.97;69.96;99755.28;5059459;28;20045;-91
2023/01/01 09:17:13;;;;;;;7.40;1.25;;;;;;;12.95;69.96;99772.00;5059851;28;20265;-84
2023/01/01 09:19:38;;;;;;;5.00;1.20;;;;;;;12.96;70.36;99767.31;5056862;28;20052;-90
2023/01/01 09:22:08;;;;;;;4.65;1.20;;;;;;;12.91;70.45;99768.16;5062878;28;20036;-91
2023/01/01 09:24:33;;;;;;;4.85;1.10;;;;;;;12.98;69.96;99794.41;5060134;28;20048;-91
2023/01/01 09:26:58;;;;;;;3.23;1.03;;;;;;;12.99;69.53;99790.56;5060089;28;20024;-87
2023/01/01 09:29:23;;;;;;;7.03;2.00;;;;;;;13.02;69.64;99795.47;5059335;28;20278;-89
2023/01/01 09:31:49;;;;;;;5.77;2.17;;;;;;;13.12;69.20;99794.63;5062128;28;20758;-88
2023/01/01 09:34:16;;;;;;;7.28;2.63;;;;;;;13.01;69.59;99796.56;5060338;28;20323;-90
2023/01/01 09:36:42;;;;;;;4.75;1.90;;;;;;;13.04;69.64;99796.00;5059474;28;20047;-87
2023/01/01 09:39:10;;;;;;;2.90;1.42;;;;;;;13.03;69.36;99802.59;5061459;28;20060;-86
2023/01/01 09:41:54;;;;;;;7.68;2.55;;;;;;;13.14;69.46;99801.44;5060396;28;20107;-90
2023/01/01 09:44:32;;;;;;;10.95;1.88;;;;;;;13.11;69.11;99807.47;5059167;28;20481;-89
2023/01/01 09:47:00;;;;;;;2.80;1.20;;;;;;;13.24;69.18;99810.72;5059705;28;20036;-87
2023/01/01 09:49:31;;;;;;;3.78;1.48;;;;;;;13.17;69.54;99798.16;5059217;28;20049;-90
2023/01/01 09:52:00;;;;;;;10.13;1.73;;;;;;;13.04;69.83;99793.28;5060809;28;20110;-94
2023/01/01 09:54:32;;;;;;;7.82;2.00;;;;;;;13.14;69.37;99804.19;5060366;28;20460;-90
2023/01/01 09:56:59;;;;;;;4.13;1.50;;;;;;;13.17;69.56;99809.09;5041506;28;20490;-88
2023/01/01 09:59:25;;;;;;;7.57;2.47;;;;;;;13.10;69.44;99807.78;5059335;28;20373;-90
2023/01/01 10:02:16;;;;;;;9.85;2.00;;;;;;;13.17;69.72;99814.56;5058950;28;20025;-91
2023/01/01 10:05:22;;;;;;;5.90;1.77;;;;;;;13.16;69.22;99817.59;5059402;28;20123;-90
2023/01/01 10:08:08;;;;;;;6.97;1.83;;;;;;;13.11;69.82;99814.88;5059698;28;20039;-92
2023/01/01 10:10:48;;;;;;;5.00;1.40;;;;;;;13.18;69.72;99827.16;5057329;28;20037;-88
2023/01/01 10:13:29;;;;;;;6.40;1.20;;;;;;;13.22;69.81;99838.34;5059837;28;20029;-91
2023/01/01 10:15:58;;;;;;;12.02;1.20;;;;;;;13.32;69.51;99826.56;5059492;28;20051;-91
2023/01/01 10:18:29;;;;;;;4.05;1.92;;;;;;;13.24;69.51;99838.09;5060712;28;20057;-92
2023/01/01 10:21:34;;;;;;;6.68;2.15;;;;;;;13.12;69.88;99839.22;5060630;28;20518;-92
2023/01/01 10:24:26;;;;;;;5.15;1.58;;;;;;;13.17;69.78;99831.00;5058885;28;20083;-95
2023/01/01 10:26:54;;;;;;;3.63;0.98;;;;;;;13.13;69.99;99838.13;5062806;28;20037;-95
2023/01/01 10:29:26;;;;;;;5.43;1.75;;;;;;;13.13;70.32;99840.03;5439486;22;20052;-91
2023/01/01 10:31:54;;;;;;;4.60;1.40;;;;;;;13.24;69.74;99832.63;5082544;28;20096;-94
2023/01/01 10:34:27;;;;;;;5.47;1.77;;;;;;;13.14;71.00;99828.00;5062318;28;20035;-94
2023/01/01 10:36:56;;;;;;;6.20;1.77;;;;;;;13.21;70.37;99816.75;5075428;28;20036;-96
2023/01/01 10:39:21;;;;;;;5.10;1.45;;;;;;;13.11;70.34;99821.16;5071222;28;20036;-94
2023/01/01 10:41:47;;;;;;;8.65;1.50;;;;;;;13.12;70.69;99811.84;5070903;28;20500;-94
2023/01/01 10:44:15;;;;;;;2.83;1.27;;;;;;;13.02;70.61;99809.16;5068999;28;20478;-94
2023/01/01 10:46:45;;;;;;;6.90;1.50;;;;;;;13.06;70.98;99818.44;5069169;28;20036;-94
2023/01/01 10:49:12;;;;;;;8.90;1.38;;;;;;;13.14;70.86;99798.69;5071040;28;20036;-94
2023/01/01 10:51:47;;;;;;;10.38;2.13;;;;;;;13.14;70.49;99812.38;5058074;28;20132;-95
2023/01/01 10:54:36;;;;;;;5.63;1.13;;;;;;;13.23;70.21;99815.38;5050205;28;20032;-89
2023/01/01 10:57:14;;;;;;;4.60;1.58;;;;;;;13.26;70.41;99814.00;5050984;28;20036;-95
2023/01/01 10:59:41;;;;;;;3.25;1.27;;;;;;;13.06;70.50;99807.50;5048038;28;20077;-93
2023/01/01 11:02:23;;;;;;;3.83;1.70;;;;;;;13.21;70.48;99803.06;5052855;28;20066;-94
2023/01/01 11:04:50;;;;;;;6.75;1.50;;;;;;;13.18;70.65;99798.97;5051494;28;20498;-91
2023/01/01 11:07:27;;;;;;;4.70;1.88;;;;;;;13.11;70.62;99796.53;5050390;28;20044;-95
2023/01/01 11:10:00;;;;;;;5.30;1.30;;;;;;;13.10;70.68;99797.63;5050677;28;20071;-91
2023/01/01 11:12:30;;;;;;;7.78;1.58;;;;;;;13.02;70.85;99803.69;5052210;28;20473;-91
2023/01/01 11:14:58;;;;;;;9.80;1.90;;;;;;;13.15;70.57;99805.81;5050961;28;20037;-89
2023/01/01 11:17:32;;;;;;;6.50;2.00;;;;;;;13.08;70.84;99808.03;5048930;28;20123;-92
2023/01/01 11:19:59;;;;;;;10.00;1.55;;;;;;;13.12;71.06;99816.53;5049522;28;20044;-94
2023/01/01 11:22:44;;;;;;;5.30;1.40;;;;;;;13.13;71.43;99813.50;5053649;28;20040;-95
2023/01/01 11:25:24;;;;;;;5.85;1.40;;;;;;;13.05;71.25;99825.84;5052211;28;20087;-93
2023/01/01 11:27:50;;;;;;;5.00;1.65;;;;;;;13.16;71.12;99834.03;5053253;28;20040;-93
2023/01/01 11:30:27;;;;;;;5.22;1.40;;;;;;;13.27;70.68;99835.59;5054317;28;20403;-92
2023/01/01 11:32:59;;;;;;;4.32;1.15;;;;;;;13.33;70.63;99830.91;5051493;28;20491;-92
2023/01/01 11:35:29;;;;;;;4.85;0.95;;;;;;;13.28;70.43;99847.38;5058163;28;20036;-94
2023/01/01 11:37:56;;;;;;;5.68;1.45;;;;;;;13.25;70.43;99853.41;5054795;28;20036;-88
2023/01/01 11:40:26;;;;;;;4.63;1.67;;;;;;;13.28;70.66;99848.19;5054259;28;20154;-88
2023/01/01 11:42:58;;;;;;;5.75;2.00;;;;;;;13.25;70.63;99847.94;5052579;28;20440;-87
2023/01/01 11:45:27;;;;;;;8.73;1.52;;;;;;;13.14;70.79;99855.38;5052988;28;20064;-85